Time;durP1;ratioP1;P1;durP2;ratioP2;P2;SDS_P1;SDS_P2;PMS_P1;PMS_P2;Temp;Humidity;BMP_temperature;BMP_pressure;BME280_temperature;BME280_humidity;BME280_pressure;Samples;Min_cycle;Max_cycle;Signal;HPM_P1;HPM_P2
2024/03/29 00:02:15;;;;;;;6.60;4.50;;;;;;;9.32;73.70;99265.56;105710;1257;76915;-63
2024/03/29 00:04:41;;;;;;;6.10;4.40;;;;;;;9.30;73.62;99271.15;104600;1258;138869;-63
2024/03/29 00:07:09;;;;;;;6.70;4.20;;;;;;;9.25;73.48;99275.83;104768;1261;74315;-63
2024/03/29 00:09:36;;;;;;;8.20;4.70;;;;;;;9.19;73.41;99274.93;104759;1256;62071;-63
2024/03/29 00:12:03;;;;;;;6.00;4.20;;;;;;;9.12;73.37;99274.88;104605;1262;138524;-63
2024/03/29 00:14:31;;;;;;;11.00;4.20;;;;;;;9.04;73.31;99279.37;108747;1257;77386;-64
2024/03/29 00:16:58;;;;;;;5.40;4.00;;;;;;;8.94;73.24;99288.73;108214;1256;139857;-63
2024/03/29 00:19:24;;;;;;;6.60;4.60;;;;;;;8.83;73.15;99300.02;108604;1257;71453;-63
2024/03/29 00:21:51;;;;;;;6.60;4.20;;;;;;;8.73;73.15;99300.80;108824;1257;60677;-63
2024/03/29 00:24:17;;;;;;;9.30;4.70;;;;;;;8.62;73.22;99309.62;108780;1257;138314;-63
2024/03/29 00:26:44;;;;;;;10.10;4.90;;;;;;;8.53;73.23;99317.05;107631;1257;75818;-63
2024/03/29 00:29:11;;;;;;;6.70;4.60;;;;;;;8.45;73.24;99315.56;104509;1260;138861;-63
2024/03/29 00:31:38;;;;;;;6.90;4.80;;;;;;;8.35;73.33;99317.02;104620;1258;73102;-63
2024/03/29 00:34:04;;;;;;;6.50;4.50;;;;;;;8.25;73.38;99318.64;104494;1262;62186;-63
2024/03/29 00:36:31;;;;;;;7.00;4.70;;;;;;;8.16;73.57;99329.90;104617;1261;138579;-63
2024/03/29 00:38:57;;;;;;;5.70;4.30;;;;;;;8.10;73.67;99335.42;104982;1261;76574;-66
2024/03/29 00:41:24;;;;;;;9.30;4.60;;;;;;;8.04;73.74;99342.33;104629;1263;138333;-63
2024/03/29 00:43:51;;;;;;;6.90;4.90;;;;;;;7.98;73.76;99345.58;104681;1257;73830;-64
2024/03/29 00:46:18;;;;;;;6.60;5.00;;;;;;;7.89;73.82;99350.69;108614;1257;61136;-62
2024/03/29 00:48:47;;;;;;;6.80;5.10;;;;;;;7.81;73.83;99350.77;108693;1257;59813;-63
2024/03/29 00:51:13;;;;;;;6.90;4.90;;;;;;;7.71;73.93;99358.83;106301;1260;75311;-66
2024/03/29 00:53:40;;;;;;;6.90;4.70;;;;;;;7.63;73.89;99356.95;104929;1257;137608;-67
2024/03/29 00:56:06;;;;;;;7.40;4.80;;;;;;;7.54;74.01;99364.52;104772;1260;72087;-68
2024/03/29 00:58:33;;;;;;;9.80;6.10;;;;;;;7.47;74.18;99364.06;104414;1260;138974;-68
2024/03/29 01:01:00;;;;;;;11.40;6.90;;;;;;;7.40;74.35;99365.02;104662;1258;62524;-68
2024/03/29 01:03:31;;;;;;;13.20;7.70;;;;;;;7.35;74.41;99363.71;104572;1257;62367;-69
2024/03/29 01:05:57;;;;;;;13.90;6.70;;;;;;;7.29;74.56;99372.52;103828;1258;139509;-68
2024/03/29 01:08:24;;;;;;;10.50;6.30;;;;;;;7.23;74.65;99383.41;104704;1257;73230;-69
2024/03/29 01:10:51;;;;;;;12.50;5.70;;;;;;;7.17;74.66;99384.02;104516;1257;138688;-68
2024/03/29 01:13:18;;;;;;;9.90;5.90;;;;;;;7.12;74.77;99391.95;104568;1260;62183;-69
2024/03/29 01:15:45;;;;;;;6.80;5.00;;;;;;;7.07;74.84;99404.59;104466;1257;75937;-64
2024/03/29 01:18:12;;;;;;;9.50;4.80;;;;;;;7.01;74.81;99412.69;104396;1263;138651;-64
2024/03/29 01:20:38;;;;;;;6.10;3.80;;;;;;;6.96;74.84;99419.06;104626;1260;70343;-63
2024/03/29 01:23:05;;;;;;;5.00;3.40;;;;;;;6.91;74.90;99422.64;104426;1264;138249;-63
2024/03/29 01:25:33;;;;;;;8.00;3.30;;;;;;;6.87;74.89;99429.02;104652;1264;62060;-63
2024/03/29 01:28:00;;;;;;;4.60;3.00;;;;;;;6.82;74.96;99437.98;104491;1263;77298;-64
2024/03/29 01:30:27;;;;;;;4.70;3.20;;;;;;;6.78;75.07;99447.69;104433;1261;137840;-65
2024/03/29 01:32:54;;;;;;;3.10;2.50;;;;;;;6.74;74.99;99453.53;104503;1261;72809;-64
2024/03/29 01:35:20;;;;;;;3.50;2.20;;;;;;;6.70;75.05;99459.55;104520;1260;137948;-65
2024/03/29 01:37:47;;;;;;;5.60;2.70;;;;;;;6.66;75.10;99459.48;104571;1261;62221;-62
2024/03/29 01:40:14;;;;;;;3.20;2.60;;;;;;;6.63;75.07;99454.52;104645;1260;74636;-63
2024/03/29 01:42:40;;;;;;;3.30;2.50;;;;;;;6.59;75.04;99464.22;104573;1261;138179;-63
2024/03/29 01:45:08;;;;;;;3.80;2.20;;;;;;;6.54;74.97;99464.98;104491;1259;73129;-63
2024/03/29 01:47:35;;;;;;;4.00;2.30;;;;;;;6.49;74.95;99470.45;107197;1260;139557;-63
2024/03/29 01:50:03;;;;;;;3.50;2.30;;;;;;;6.46;74.94;99461.84;108508;1258;60334;-63
2024/03/29 01:52:29;;;;;;;3.10;1.90;;;;;;;6.41;74.97;99469.07;108542;1260;139311;-63
2024/03/29 01:54:56;;;;;;;5.10;2.10;;;;;;;6.38;75.02;99477.55;108833;1257;67090;-63
2024/03/29 01:57:22;;;;;;;3.80;2.10;;;;;;;6.35;74.96;99483.39;107038;1257;71088;-63
2024/03/29 01:59:49;;;;;;;3.80;2.00;;;;;;;6.33;75.06;99491.36;104293;1264;139003;-64
2024/03/29 02:02:16;;;;;;;2.90;1.80;;;;;;;6.31;75.06;99501.96;104447;1260;62121;-64
2024/03/29 02:04:43;;;;;;;2.60;1.70;;;;;;;6.30;75.09;99510.81;104399;1262;139061;-63
2024/03/29 02:07:09;;;;;;;4.70;1.90;;;;;;;6.31;75.15;99513.63;104627;1261;66353;-63
2024/03/29 02:09:36;;;;;;;2.30;1.80;;;;;;;6.31;75.17;99524.09;104801;1258;71003;-63
2024/03/29 02:12:03;;;;;;;3.10;1.60;;;;;;;6.30;75.22;99534.34;104455;1263;138270;-63
2024/03/29 02:14:30;;;;;;;2.60;1.70;;;;;;;6.30;75.17;99547.58;108609;1257;60952;-64
2024/03/29 02:16:56;;;;;;;2.30;1.70;;;;;;;6.29;75.08;99554.51;108532;1257;137794;-65
2024/03/29 02:19:23;;;;;;;2.20;1.50;;;;;;;6.26;75.13;99561.77;105735;1260;66203;-67
2024/03/29 02:21:50;;;;;;;2.80;1.80;;;;;;;6.24;75.09;99561.38;104505;1257;72653;-67
2024/03/29 02:24:17;;;;;;;2.90;1.80;;;;;;;6.21;75.05;99565.49;104529;1260;138324;-65
2024/03/29 02:26:45;;;;;;;3.80;1.60;;;;;;;6.18;75.15;99565.42;104516;1256;62089;-64
2024/03/29 02:29:12;;;;;;;2.20;1.50;;;;;;;6.15;75.04;99572.30;104254;1257;138511;-64
2024/03/29 02:31:39;;;;;;;1.80;1.30;;;;;;;6.11;75.05;99581.77;104087;1257;66903;-63
2024/03/29 02:34:07;;;;;;;2.00;1.40;;;;;;;6.06;75.06;99591.95;104624;1260;73867;-63
2024/03/29 02:36:34;;;;;;;2.10;1.40;;;;;;;6.03;75.04;99595.02;104673;1257;138300;-63
2024/03/29 02:39:01;;;;;;;1.20;1.10;;;;;;;6.01;75.13;99596.55;104868;1257;62136;-63
2024/03/29 02:41:29;;;;;;;1.90;1.40;;;;;;;5.98;75.08;99600.81;104548;1262;139603;-63
2024/03/29 02:43:56;;;;;;;2.30;1.40;;;;;;;5.95;75.17;99601.58;104544;1260;67665;-63
2024/03/29 02:46:23;;;;;;;2.10;1.60;;;;;;;5.93;75.21;99606.91;104508;1262;138787;-63
2024/03/29 02:48:50;;;;;;;3.80;1.50;;;;;;;5.93;75.28;99610.74;104564;1258;62528;-63
2024/03/29 02:51:16;;;;;;;2.10;1.20;;;;;;;5.96;75.42;99605.98;104708;1261;62032;-64
2024/03/29 02:53:43;;;;;;;1.80;1.10;;;;;;;6.01;75.41;99609.42;104751;1260;137753;-64
2024/03/29 02:56:09;;;;;;;1.20;1.10;;;;;;;6.03;75.42;99619.40;104479;1257;66064;-64
2024/03/29 02:58:36;;;;;;;3.00;1.20;;;;;;;6.05;75.44;99616.66;104504;1258;138126;-64
2024/03/29 03:01:07;;;;;;;1.70;1.10;;;;;;;6.05;75.32;99621.54;104396;1257;62091;-65
2024/03/29 03:03:35;;;;;;;1.90;1.30;;;;;;;6.02;75.24;99623.73;104283;1261;62002;-63
2024/03/29 03:06:02;;;;;;;2.10;1.20;;;;;;;5.97;75.14;99626.04;108475;1257;138971;-64
2024/03/29 03:11:14;;;;;;;4.60;2.60;;;;;;;5.85;75.00;99633.88;107459;1256;138589;-63
2024/03/29 03:13:41;;;;;;;6.60;2.90;;;;;;;5.80;75.06;99636.37;104575;1256;62134;-62
2024/03/29 03:16:08;;;;;;;3.90;2.60;;;;;;;5.75;75.06;99641.11;104577;1259;62154;-63
2024/03/29 03:18:34;;;;;;;4.50;2.40;;;;;;;5.71;75.20;99643.77;104589;1258;138989;-63
2024/03/29 03:21:01;;;;;;;4.10;2.40;;;;;;;5.67;75.24;99649.23;104710;1260;65077;-63
2024/03/29 03:23:28;;;;;;;4.60;2.70;;;;;;;5.64;75.31;99650.73;104765;1256;138322;-63
2024/03/29 03:25:55;;;;;;;3.80;2.80;;;;;;;5.61;75.34;99654.83;108771;1256;59775;-64
2024/03/29 03:28:22;;;;;;;4.10;2.30;;;;;;;5.57;75.52;99655.26;108649;1256;139308;-64
2024/03/29 03:30:49;;;;;;;3.40;2.30;;;;;;;5.54;75.51;99663.17;108706;1256;75668;-63
2024/03/29 03:33:16;;;;;;;4.00;2.30;;;;;;;5.51;75.45;99663.77;108663;1256;64060;-63
2024/03/29 03:35:43;;;;;;;2.70;2.10;;;;;;;5.49;75.61;99668.23;108742;1256;138579;-63
2024/03/29 03:38:09;;;;;;;4.50;2.30;;;;;;;5.47;75.63;99668.35;108831;1256;59667;-63
2024/03/29 03:40:36;;;;;;;4.50;2.20;;;;;;;5.45;75.58;99669.70;108815;1255;138875;-65
2024/03/29 03:43:04;;;;;;;5.80;1.80;;;;;;;5.42;75.58;99670.14;108603;1256;75376;-65
2024/03/29 03:45:40;;;;;;;5.60;2.40;;;;;;;5.38;75.58;99670.19;108132;1256;67652;-64
2024/03/29 03:48:10;;;;;;;2.90;1.90;;;;;;;5.34;75.64;99669.90;108492;1255;137607;-64
2024/03/29 03:50:37;;;;;;;2.40;1.70;;;;;;;5.29;75.72;99677.08;108497;1256;59777;-65
2024/03/29 03:53:04;;;;;;;2.80;2.10;;;;;;;5.25;75.89;99677.84;108756;1256;137997;-64
2024/03/29 03:55:31;;;;;;;6.80;2.30;;;;;;;5.21;75.82;99677.02;106522;1257;76505;-65
2024/03/29 03:57:57;;;;;;;3.70;1.90;;;;;;;5.16;75.75;99678.27;104649;1256;66010;-65
2024/03/29 04:00:24;;;;;;;7.40;2.60;;;;;;;5.11;75.96;99676.90;104656;1256;139341;-65
2024/03/29 04:02:51;;;;;;;5.90;2.90;;;;;;;5.08;75.97;99679.41;104295;1256;62023;-64
2024/03/29 04:05:19;;;;;;;5.00;2.30;;;;;;;5.03;76.04;99681.36;104373;1257;138343;-63
2024/03/29 04:07:46;;;;;;;5.40;1.90;;;;;;;4.98;76.06;99681.39;105462;1258;75905;-63
2024/03/29 04:10:12;;;;;;;2.40;1.60;;;;;;;4.94;76.13;99677.09;108887;1256;66424;-64
2024/03/29 04:12:39;;;;;;;3.90;2.60;;;;;;;4.90;76.12;99674.54;105373;1261;138569;-67
2024/03/29 04:15:06;;;;;;;5.50;4.30;;;;;;;4.87;76.31;99672.70;104546;1256;62127;-67
2024/03/29 04:17:35;;;;;;;5.60;5.10;;;;;;;4.84;76.24;99676.27;105083;1259;139363;-67
2024/03/29 04:20:01;;;;;;;8.20;5.80;;;;;;;4.83;76.30;99679.02;104685;1259;76568;-67
2024/03/29 04:22:29;;;;;;;6.60;5.00;;;;;;;4.81;76.46;99683.64;104655;1262;139075;-66
2024/03/29 04:24:55;;;;;;;5.90;3.70;;;;;;;4.79;76.41;99686.19;104674;1264;73340;-66
2024/03/29 04:27:22;;;;;;;3.40;3.10;;;;;;;4.78;76.60;99689.98;104835;1256;62640;-67
2024/03/29 04:29:53;;;;;;;6.60;3.30;;;;;;;4.78;76.61;99691.19;104560;1256;137848;-67
2024/03/29 04:32:20;;;;;;;4.20;2.60;;;;;;;4.77;76.59;99688.06;104907;1256;76016;-67
2024/03/29 04:34:48;;;;;;;3.90;2.70;;;;;;;4.77;76.70;99685.80;104673;1257;138772;-67
2024/03/29 04:37:15;;;;;;;7.90;2.90;;;;;;;4.77;76.67;99689.80;104964;1256;72919;-63
2024/03/29 04:39:46;;;;;;;3.50;2.50;;;;;;;4.79;76.81;99690.54;104650;1259;62165;-64
2024/03/29 04:42:14;;;;;;;4.60;2.20;;;;;;;4.81;76.85;99689.02;108319;1256;138660;-63
2024/03/29 04:44:42;;;;;;;4.10;2.60;;;;;;;4.93;77.18;99688.71;104784;1256;73430;-63
2024/03/29 04:47:09;;;;;;;3.50;2.00;;;;;;;5.64;78.76;99688.33;104500;1256;139931;-64
2024/03/29 04:49:39;;;;;;;3.80;1.70;;;;;;;6.72;79.15;99683.79;104712;1257;72447;-64
2024/03/29 04:52:06;;;;;;;7.30;4.00;;;;;;;7.37;77.42;99688.52;104786;1260;62402;-65
2024/03/29 04:54:33;;;;;;;7.30;2.70;;;;;;;7.30;75.50;99688.91;104796;1259;138859;-65
2024/03/29 04:57:06;;;;;;;4.90;2.80;;;;;;;7.75;76.26;99685.94;104602;1256;76129;-66
2024/03/29 04:59:33;;;;;;;5.10;2.00;;;;;;;8.54;76.33;99676.54;108770;1259;138593;-65
2024/03/29 05:02:00;;;;;;;3.70;2.00;;;;;;;8.92;74.62;99674.33;108913;1256;72532;-64
2024/03/29 05:04:26;;;;;;;5.70;1.70;;;;;;;8.99;73.11;99675.30;106658;1259;138555;-64
2024/03/29 05:06:57;;;;;;;3.00;1.40;;;;;;;8.87;72.35;99678.63;104836;1260;62019;-64
2024/03/29 05:09:24;;;;;;;2.80;1.70;;;;;;;8.79;72.01;99671.85;108997;1256;74382;-65
2024/03/29 05:11:51;;;;;;;2.50;1.60;;;;;;;8.69;71.83;99673.30;108774;1256;137693;-65
2024/03/29 05:14:22;;;;;;;3.50;1.60;;;;;;;8.65;71.69;99682.50;108859;1257;73464;-65
2024/03/29 05:16:49;;;;;;;4.90;1.70;;;;;;;8.60;71.45;99691.50;106122;1260;137874;-65
2024/03/29 05:19:15;;;;;;;3.60;2.20;;;;;;;8.54;71.45;99695.60;104685;1262;62506;-64
2024/03/29 05:21:42;;;;;;;3.70;1.90;;;;;;;8.52;71.38;99698.73;108869;1256;75993;-65
2024/03/29 05:24:09;;;;;;;2.40;1.40;;;;;;;8.50;71.24;99700.27;108841;1256;138610;-65
2024/03/29 05:26:36;;;;;;;3.50;1.70;;;;;;;8.49;71.23;99693.25;108962;1255;73863;-65
2024/03/29 05:29:04;;;;;;;3.30;2.10;;;;;;;8.48;71.14;99688.69;108608;1256;139153;-66
2024/03/29 05:31:30;;;;;;;5.80;2.80;;;;;;;8.49;71.16;99684.69;106357;1257;62250;-67
2024/03/29 05:33:57;;;;;;;2.50;1.80;;;;;;;8.49;71.09;99683.80;104602;1256;76528;-67
2024/03/29 05:36:24;;;;;;;3.00;1.90;;;;;;;8.51;71.01;99687.16;104616;1259;137922;-67
2024/03/29 05:38:51;;;;;;;1.80;1.60;;;;;;;8.52;71.06;99688.05;104711;1257;72837;-68
2024/03/29 05:41:17;;;;;;;2.90;1.60;;;;;;;8.53;70.99;99691.91;104828;1257;137653;-67
2024/03/29 05:43:44;;;;;;;3.20;2.00;;;;;;;8.55;71.00;99695.98;105084;1258;62048;-66
2024/03/29 05:46:11;;;;;;;4.90;2.00;;;;;;;8.63;71.16;99703.62;104950;1260;74697;-66
2024/03/29 05:48:38;;;;;;;3.50;2.30;;;;;;;8.79;71.29;99713.48;104691;1258;137523;-68
2024/03/29 05:51:05;;;;;;;2.90;2.10;;;;;;;8.98;71.21;99710.27;104885;1257;72997;-66
2024/03/29 05:53:32;;;;;;;3.90;2.10;;;;;;;9.11;70.95;99716.58;105243;1260;138131;-66
2024/03/29 05:55:58;;;;;;;4.00;1.90;;;;;;;9.18;70.76;99717.75;104704;1257;62157;-66
2024/03/29 05:58:25;;;;;;;2.70;1.60;;;;;;;9.20;70.41;99723.54;104426;1258;138345;-66
2024/03/29 06:00:52;;;;;;;3.70;2.10;;;;;;;9.12;70.17;99725.70;104647;1257;66935;-66
2024/03/29 06:03:18;;;;;;;3.20;2.10;;;;;;;9.02;69.97;99723.29;104597;1258;72415;-66
2024/03/29 06:05:47;;;;;;;2.80;1.90;;;;;;;8.88;69.80;99723.08;104624;1258;137785;-66
2024/03/29 06:08:14;;;;;;;2.80;1.80;;;;;;;8.74;69.62;99725.65;104656;1257;62147;-66
2024/03/29 06:10:41;;;;;;;2.70;2.00;;;;;;;8.64;69.82;99725.14;104630;1257;138591;-66
2024/03/29 06:13:10;;;;;;;3.90;1.90;;;;;;;8.63;70.03;99713.41;104734;1258;66288;-68
2024/03/29 06:18:30;;;;;;;3.20;2.00;;;;;;;8.63;70.01;99717.09;104852;1256;137616;-68
2024/03/29 06:20:57;;;;;;;3.60;2.30;;;;;;;8.61;70.04;99717.05;104906;1256;61979;-67
2024/03/29 06:23:24;;;;;;;2.10;1.70;;;;;;;8.61;70.07;99716.17;104696;1256;137858;-67
2024/03/29 06:25:51;;;;;;;3.40;2.00;;;;;;;8.62;70.09;99716.70;104927;1259;65854;-67
2024/03/29 06:28:17;;;;;;;3.50;2.10;;;;;;;8.62;70.10;99712.35;104923;1260;72083;-67
2024/03/29 06:30:44;;;;;;;4.40;2.10;;;;;;;8.63;70.08;99720.21;104975;1258;138310;-67
2024/03/29 06:33:11;;;;;;;4.40;1.70;;;;;;;8.66;70.08;99715.21;104860;1259;62052;-68
2024/03/29 06:35:37;;;;;;;2.90;1.80;;;;;;;8.64;69.90;99717.10;104738;1257;137639;-67
2024/03/29 06:38:04;;;;;;;2.60;1.80;;;;;;;8.65;69.99;99723.06;104983;1260;66288;-67
2024/03/29 06:40:31;;;;;;;4.10;2.00;;;;;;;8.68;69.98;99724.16;104892;1257;137944;-67
2024/03/29 06:42:59;;;;;;;3.30;2.00;;;;;;;8.71;69.91;99727.54;105103;1260;62196;-68
2024/03/29 06:45:26;;;;;;;4.10;2.60;;;;;;;8.73;69.83;99729.14;104859;1260;62057;-67
2024/03/29 06:47:53;;;;;;;3.60;1.90;;;;;;;8.75;69.88;99732.84;104737;1259;137805;-66
2024/03/29 06:50:20;;;;;;;4.60;2.20;;;;;;;8.80;69.87;99732.38;104827;1261;66291;-66
2024/03/29 06:52:46;;;;;;;5.30;2.10;;;;;;;8.82;69.85;99738.73;104643;1266;138506;-67
2024/03/29 06:55:13;;;;;;;4.20;2.10;;;;;;;8.85;69.76;99750.85;104913;1259;62174;-68
2024/03/29 06:57:40;;;;;;;4.30;2.10;;;;;;;8.87;69.70;99765.39;104906;1261;62065;-67
2024/03/29 07:00:08;;;;;;;2.70;1.80;;;;;;;8.89;69.69;99769.63;104855;1259;137873;-67
2024/03/29 07:02:35;;;;;;;2.80;2.00;;;;;;;8.92;69.64;99768.80;105373;1256;65841;-67
2024/03/29 07:05:07;;;;;;;5.90;2.20;;;;;;;8.97;69.68;99771.85;104829;1260;137894;-67
2024/03/29 07:07:34;;;;;;;3.40;2.00;;;;;;;9.02;69.57;99771.39;104912;1260;62087;-66
2024/03/29 07:10:01;;;;;;;5.00;2.20;;;;;;;9.05;69.54;99770.23;104862;1260;62049;-68
2024/03/29 07:12:28;;;;;;;4.30;2.10;;;;;;;9.10;69.57;99770.48;104847;1256;138420;-68
2024/03/29 07:14:54;;;;;;;6.40;2.30;;;;;;;9.18;69.49;99779.34;104965;1259;66970;-68
2024/03/29 07:17:21;;;;;;;5.60;2.50;;;;;;;9.25;69.42;99783.65;104917;1257;137805;-68
2024/03/29 07:19:48;;;;;;;5.20;2.30;;;;;;;9.33;69.44;99780.96;104693;1259;63719;-68
2024/03/29 07:22:14;;;;;;;5.10;2.40;;;;;;;9.41;69.40;99783.54;104859;1261;62052;-68
2024/03/29 07:24:41;;;;;;;9.70;3.50;;;;;;;9.50;69.37;99789.27;104817;1256;138430;-68
2024/03/29 07:27:08;;;;;;;5.00;1.80;;;;;;;9.58;69.37;99794.27;104863;1260;66594;-68
2024/03/29 07:29:35;;;;;;;2.80;1.90;;;;;;;9.66;69.22;99793.50;104752;1259;138353;-68
2024/03/29 07:32:02;;;;;;;3.20;2.30;;;;;;;9.72;69.07;99800.59;104942;1259;62135;-67
2024/03/29 07:34:29;;;;;;;3.10;2.10;;;;;;;9.77;69.02;99820.82;104827;1260;137867;-67
2024/03/29 07:36:55;;;;;;;4.70;2.50;;;;;;;9.85;68.96;99824.58;104675;1262;75453;-67
2024/03/29 07:39:22;;;;;;;3.90;2.10;;;;;;;9.91;68.77;99822.73;105069;1260;67343;-67
2024/03/29 07:41:49;;;;;;;2.50;1.80;;;;;;;9.95;68.61;99828.73;105484;1255;137794;-65
2024/03/29 07:44:16;;;;;;;2.80;1.80;;;;;;;9.98;68.60;99839.83;104959;1258;62385;-66
2024/03/29 07:46:43;;;;;;;5.00;2.30;;;;;;;10.03;68.55;99847.95;104781;1260;138870;-65
2024/03/29 07:49:09;;;;;;;5.30;2.60;;;;;;;10.11;68.56;99848.58;104936;1258;74486;-66
2024/03/29 07:51:36;;;;;;;4.00;2.10;;;;;;;10.17;68.47;99850.40;104955;1259;67346;-67
2024/03/29 07:54:03;;;;;;;3.30;2.00;;;;;;;10.22;68.33;99849.41;104902;1256;138341;-67
2024/03/29 07:56:29;;;;;;;4.30;2.30;;;;;;;10.25;68.05;99844.73;104835;1256;62267;-67
2024/03/29 07:58:56;;;;;;;4.50;1.90;;;;;;;10.29;67.87;99837.58;104711;1262;138223;-67
2024/03/29 08:01:23;;;;;;;2.40;1.60;;;;;;;10.31;67.72;99834.98;104813;1260;75508;-67
2024/03/29 08:03:51;;;;;;;4.50;1.80;;;;;;;10.36;67.78;99835.21;104877;1256;66065;-67
2024/03/29 08:06:18;;;;;;;3.70;2.00;;;;;;;10.41;67.65;99838.45;105613;1256;138156;-67
2024/03/29 08:08:45;;;;;;;5.10;2.00;;;;;;;10.48;67.61;99836.94;104750;1256;62183;-67
2024/03/29 08:11:12;;;;;;;3.70;1.80;;;;;;;10.54;67.46;99840.86;106719;1258;137952;-67
2024/03/29 08:13:40;;;;;;;3.80;1.60;;;;;;;10.59;67.24;99841.60;104674;1259;75388;-67
2024/03/29 08:16:06;;;;;;;5.70;2.50;;;;;;;10.63;67.09;99847.80;104561;1264;67044;-66
2024/03/29 08:18:36;;;;;;;4.70;1.80;;;;;;;10.68;67.05;99848.71;104612;1259;139004;-66
2024/03/29 08:21:03;;;;;;;6.30;2.50;;;;;;;10.73;67.08;99844.92;105121;1261;62203;-65
2024/03/29 08:23:30;;;;;;;3.80;1.70;;;;;;;10.80;66.96;99846.73;105950;1258;138808;-66
2024/03/29 08:25:57;;;;;;;4.50;1.70;;;;;;;10.87;66.77;99850.30;104956;1257;74612;-67
2024/03/29 08:28:24;;;;;;;4.10;1.80;;;;;;;10.92;66.58;99852.98;104584;1259;137976;-66
2024/03/29 08:30:58;;;;;;;5.00;1.70;;;;;;;10.97;66.55;99857.77;108939;1256;72860;-65
2024/03/29 08:33:24;;;;;;;;;;;;;;;11.03;66.36;99862.39;106008;1258;62240;-66
2024/03/29 08:35:51;;;;;;;3.00;1.50;;;;;;;11.09;66.06;99862.27;104500;1256;361109;-66
2024/03/29 08:38:18;;;;;;;3.50;2.00;;;;;;;11.14;66.02;99866.52;104881;1257;74744;-66
2024/03/29 08:40:47;;;;;;;3.80;1.50;;;;;;;11.20;66.22;99864.83;104739;1260;138087;-66
2024/03/29 08:43:16;;;;;;;5.30;1.70;;;;;;;11.31;66.09;99872.27;105852;1256;72746;-67
2024/03/29 08:45:42;;;;;;;3.20;1.50;;;;;;;11.39;65.97;99878.14;104854;1262;62257;-68
2024/03/29 08:48:09;;;;;;;3.80;1.60;;;;;;;11.46;65.66;99877.31;104758;1256;138530;-67
2024/03/29 08:50:36;;;;;;;4.80;1.70;;;;;;;11.52;65.65;99881.23;104868;1256;74271;-67
2024/03/29 08:53:03;;;;;;;6.00;2.10;;;;;;;11.60;65.51;99880.92;104648;1256;138427;-67
2024/03/29 08:55:30;;;;;;;4.50;1.80;;;;;;;11.66;65.15;99881.85;109032;1256;72673;-67
2024/03/29 08:57:58;;;;;;;6.50;2.10;;;;;;;11.72;64.97;99888.73;106940;1256;62175;-66
2024/03/29 09:00:26;;;;;;;12.70;7.00;;;;;;;11.77;64.65;99885.08;104897;1256;138660;-66
2024/03/29 09:02:53;;;;;;;4.20;2.10;;;;;;;11.83;64.84;99876.33;105016;1256;75676;-66
2024/03/29 09:05:20;;;;;;;3.20;1.60;;;;;;;11.92;64.59;99882.91;104943;1260;138123;-66
2024/03/29 09:07:46;;;;;;;5.60;3.50;;;;;;;11.98;64.53;99888.40;108967;1256;72344;-66
2024/03/29 09:10:13;;;;;;;10.70;6.40;;;;;;;12.05;64.30;99891.77;108996;1256;59666;-67
2024/03/29 09:12:40;;;;;;;7.40;4.00;;;;;;;12.10;64.20;99899.01;108868;1257;138377;-66
2024/03/29 09:15:13;;;;;;;4.30;2.80;;;;;;;12.15;63.97;99901.85;109023;1258;73926;-66
2024/03/29 09:17:40;;;;;;;7.40;2.70;;;;;;;12.21;63.65;99907.69;105767;1260;137916;-66
2024/03/29 09:20:07;;;;;;;5.70;2.80;;;;;;;12.25;63.45;99910.52;104704;1259;71758;-67
2024/03/29 09:22:34;;;;;;;6.20;2.10;;;;;;;12.31;63.29;99906.14;104735;1259;138150;-66
2024/03/29 09:25:01;;;;;;;6.30;2.30;;;;;;;12.35;62.89;99903.87;104650;1257;62557;-66
2024/03/29 09:27:28;;;;;;;2.70;1.70;;;;;;;12.37;62.77;99897.36;108771;1259;76047;-67
2024/03/29 09:29:56;;;;;;;5.10;1.70;;;;;;;12.40;62.50;99898.61;107021;1256;140093;-67
2024/03/29 09:32:23;;;;;;;6.40;1.90;;;;;;;12.43;62.40;99895.11;104925;1256;73164;-68
2024/03/29 09:34:50;;;;;;;5.60;1.60;;;;;;;12.50;62.63;99892.33;104820;1260;138234;-67
2024/03/29 09:37:17;;;;;;;3.70;1.90;;;;;;;12.58;62.64;99888.64;104791;1258;62050;-68
2024/03/29 09:39:44;;;;;;;4.50;1.90;;;;;;;12.66;62.41;99886.55;104741;1261;74700;-66
2024/03/29 09:42:14;;;;;;;3.20;1.70;;;;;;;12.70;62.07;99887.63;104768;1261;137961;-66
2024/03/29 09:44:41;;;;;;;5.90;2.50;;;;;;;12.77;62.06;99895.56;104653;1263;71821;-66
2024/03/29 09:47:08;;;;;;;5.10;2.30;;;;;;;12.88;61.73;99901.21;104520;1264;138311;-66
2024/03/29 09:49:35;;;;;;;3.30;1.90;;;;;;;13.00;61.59;99910.23;105211;1259;62072;-67
2024/03/29 09:52:01;;;;;;;5.20;2.20;;;;;;;13.11;61.45;99911.64;104807;1260;75356;-67
2024/03/29 09:54:31;;;;;;;7.20;2.40;;;;;;;13.23;61.30;99920.48;104853;1260;138004;-66
2024/03/29 09:56:57;;;;;;;4.80;1.70;;;;;;;13.34;61.03;99924.73;104853;1262;73151;-67
2024/03/29 09:59:26;;;;;;;4.00;2.00;;;;;;;13.46;60.94;99925.96;104658;1257;137879;-67
2024/03/29 10:01:54;;;;;;;4.40;2.50;;;;;;;13.61;60.73;99932.33;107996;1259;62173;-67
2024/03/29 10:04:23;;;;;;;5.00;2.50;;;;;;;13.75;60.47;99931.96;104784;1260;138343;-66
2024/03/29 10:06:51;;;;;;;4.70;2.00;;;;;;;13.91;60.33;99933.34;104952;1256;65842;-66
2024/03/29 10:09:18;;;;;;;2.90;1.70;;;;;;;14.08;60.11;99929.08;105233;1262;73122;-68
2024/03/29 10:11:45;;;;;;;4.30;2.20;;;;;;;14.19;59.75;99922.33;104724;1260;138720;-66
2024/03/29 10:14:12;;;;;;;3.50;1.70;;;;;;;14.26;59.53;99923.38;106778;1259;61257;-70
2024/03/29 10:16:39;;;;;;;3.00;1.40;;;;;;;14.31;59.27;99916.29;104701;1259;138613;-66
2024/03/29 10:19:07;;;;;;;5.10;1.80;;;;;;;14.34;58.87;99915.04;104731;1261;65602;-67
2024/03/29 10:21:36;;;;;;;5.80;1.50;;;;;;;14.34;58.57;99919.11;108868;1257;72204;-67
2024/03/29 10:24:16;;;;;;;3.10;1.30;;;;;;;14.38;58.23;99924.04;108790;1261;138369;-67
2024/03/29 10:26:43;;;;;;;3.10;1.30;;;;;;;14.45;58.03;99930.55;105460;1258;62159;-66
2024/03/29 10:29:10;;;;;;;3.00;1.30;;;;;;;14.55;57.79;99932.98;104568;1262;137911;-66
2024/03/29 10:31:37;;;;;;;2.70;1.30;;;;;;;14.66;57.71;99942.14;108890;1256;65949;-70
2024/03/29 10:34:05;;;;;;;5.00;2.30;;;;;;;14.80;57.52;99947.36;108885;1256;72410;-67
2024/03/29 10:36:35;;;;;;;3.80;1.60;;;;;;;15.02;57.47;99952.55;108781;1258;137728;-66
2024/03/29 10:39:03;;;;;;;3.60;1.40;;;;;;;15.22;57.22;99959.85;106609;1259;62083;-65
2024/03/29 10:41:29;;;;;;;2.30;1.40;;;;;;;15.40;56.87;99960.59;107598;1259;137860;-65
2024/03/29 10:43:56;;;;;;;6.90;1.20;;;;;;;15.60;56.84;99954.80;104573;1264;66742;-64
2024/03/29 10:46:23;;;;;;;3.90;2.00;;;;;;;15.77;56.56;99951.48;104513;1256;138075;-66
2024/03/29 10:48:49;;;;;;;2.00;1.20;;;;;;;15.97;56.35;99951.64;104611;1259;62520;-68
2024/03/29 10:51:16;;;;;;;5.30;1.30;;;;;;;16.20;55.98;99947.35;104754;1261;66502;-65
2024/03/29 10:53:42;;;;;;;3.40;1.30;;;;;;;16.34;55.51;99944.70;104491;1264;138536;-65
2024/03/29 10:56:09;;;;;;;2.50;1.40;;;;;;;16.46;55.17;99945.27;104630;1259;65697;-66
2024/03/29 10:58:36;;;;;;;2.30;1.10;;;;;;;16.52;54.85;99952.10;104677;1257;138579;-66
2024/03/29 11:01:04;;;;;;;2.80;1.60;;;;;;;16.53;54.50;99948.92;104559;1259;62028;-66
2024/03/29 11:04:02;;;;;;;1.80;1.10;;;;;;;16.63;54.36;99956.41;104659;1262;62064;-65
2024/03/29 11:06:29;;;;;;;4.80;1.40;;;;;;;16.72;53.63;99960.19;108748;1256;138512;-66
2024/03/29 11:08:56;;;;;;;4.60;1.20;;;;;;;16.73;53.25;99958.23;107955;1262;67600;-66
2024/03/29 11:11:25;;;;;;;3.00;1.30;;;;;;;16.76;53.16;99964.21;104606;1259;138309;-66
2024/03/29 11:14:07;;;;;;;3.60;1.00;;;;;;;16.85;52.74;99970.32;108797;1258;59774;-67
2024/03/29 11:16:34;;;;;;;2.60;1.10;;;;;;;17.01;52.67;99975.07;108823;1256;138525;-66
2024/03/29 11:19:04;;;;;;;3.20;1.00;;;;;;;17.11;52.30;99976.89;108541;1256;75116;-66
2024/03/29 11:21:32;;;;;;;4.40;1.60;;;;;;;17.21;52.15;99982.77;108981;1256;67210;-66
2024/03/29 11:24:01;;;;;;;2.10;1.30;;;;;;;17.36;52.23;99976.34;108799;1256;138153;-66
2024/03/29 11:26:28;;;;;;;4.50;1.30;;;;;;;17.53;52.01;99967.38;108850;1257;60105;-66
2024/03/29 11:28:56;;;;;;;4.50;1.80;;;;;;;17.54;51.24;99954.25;108717;1256;138826;-66
2024/03/29 11:31:24;;;;;;;4.60;1.50;;;;;;;17.45;50.98;99954.38;108998;1256;75572;-67
2024/03/29 11:33:52;;;;;;;3.40;1.50;;;;;;;17.41;50.78;99949.32;108911;1256;65973;-66